Time;durP1;ratioP1;P1;durP2;ratioP2;P2;SDS_P1;SDS_P2;PMS_P1;PMS_P2;Temp;Humidity;BMP_temperature;BMP_pressure;BME280_temperature;BME280_humidity;BME280_pressure;Samples;Min_cycle;Max_cycle;Signal;HPM_P1;HPM_P2
2023/01/23 00:00:07;;;;;;;;;;;1.40;99.90;2.00;100444.00;;;;344612;28;83380;-83
2023/01/23 00:00:19;;;;;;;;;;;1.40;99.90;2.00;100442.00;;;;345477;28;92959;-83
2023/01/23 00:00:31;;;;;;;;;;;1.40;99.90;2.00;100440.00;;;;343375;28;83387;-83
2023/01/23 00:00:45;;;;;;;;;;;1.40;99.90;2.10;100439.00;;;;343003;28;88674;-83
2023/01/23 00:00:57;;;;;;;;;;;1.40;99.90;2.10;100443.00;;;;345988;28;83386;-83
2023/01/23 00:01:12;;;;;;;;;;;1.40;99.90;2.00;100443.00;;;;342850;28;92352;-83
2023/01/23 00:01:29;;;;;;;;;;;1.40;99.90;2.00;100445.00;;;;341886;28;83498;-83
2023/01/23 00:01:41;;;;;;;;;;;1.40;99.90;2.00;100444.00;;;;341611;28;88733;-83
2023/01/23 00:01:53;;;;;;;;;;;1.40;99.90;2.00;100442.00;;;;341591;28;82539;-84
2023/01/23 00:02:05;;;;;;;;;;;1.40;99.90;2.00;100434.00;;;;342884;28;91201;-83
2023/01/23 00:02:17;;;;;;;;;;;1.40;99.90;2.10;100434.00;;;;343165;28;83464;-83
2023/01/23 00:02:29;;;;;;;;;;;1.40;99.90;2.10;100447.00;;;;340160;28;89835;-83
2023/01/23 00:02:41;;;;;;;;;;;1.40;99.90;2.10;100448.00;;;;341930;28;83477;-84
2023/01/23 00:02:52;;;;;;;;;;;1.40;99.90;2.00;100444.00;;;;339997;28;90303;-83
2023/01/23 00:03:04;;;;;;;;;;;1.40;99.90;2.10;100442.00;;;;339279;28;83261;-84
2023/01/23 00:03:17;;;;;;;;;;;1.40;99.90;2.10;100441.00;;;;340071;28;92511;-83
2023/01/23 00:03:29;;;;;;;;;;;1.40;99.90;2.00;100440.00;;;;341782;28;83420;-83
2023/01/23 00:03:41;;;;;;;;;;;1.40;99.90;2.00;100445.00;;;;340179;28;89131;-83
2023/01/23 00:03:53;;;;;;;;;;;1.40;99.90;2.10;100435.00;;;;340613;28;83310;-83
2023/01/23 00:04:05;;;;;;;;;;;1.40;99.90;2.00;100434.00;;;;341533;28;90840;-82
2023/01/23 00:04:17;;;;;;;;;;;1.40;99.90;2.10;100438.00;;;;339136;28;83624;-83
2023/01/23 00:04:29;;;;;;;;;;;1.40;99.90;2.10;100447.00;;;;341393;28;93265;-83
2023/01/23 00:04:40;;;;;;;;;;;1.40;99.90;2.10;100441.00;;;;341628;28;83863;-84
2023/01/23 00:04:52;;;;;;;;;;;1.40;99.90;2.10;100440.00;;;;341425;28;88890;-83
2023/01/23 00:05:04;;;;;;;;;;;1.40;99.90;2.10;100441.00;;;;344720;28;82433;-83
2023/01/23 00:05:16;;;;;;;;;;;1.40;99.90;2.00;100442.00;;;;341412;28;91727;-83
2023/01/23 00:05:28;;;;;;;;;;;1.40;99.90;2.10;100439.00;;;;340476;28;83460;-83
2023/01/23 00:05:40;;;;;;;;;;;1.40;99.90;2.10;100441.00;;;;342874;28;92018;-83
2023/01/23 00:05:58;;;;;;;;;;;1.40;99.90;2.10;100442.00;;;;341849;28;83295;-83
2023/01/23 00:06:12;;;;;;;;;;;1.40;99.90;2.10;100445.00;;;;341486;28;90279;-83
2023/01/23 00:06:24;;;;;;;;;;;1.40;99.90;2.10;100442.00;;;;341933;28;82528;-83
2023/01/23 00:06:36;;;;;;;;;;;1.40;99.90;2.00;100432.00;;;;340160;28;89007;-83
2023/01/23 00:06:49;;;;;;;;;;;1.40;99.90;2.00;100439.00;;;;341913;28;82364;-83
2023/01/23 00:07:02;;;;;;;;;;;1.40;99.90;2.10;100439.00;;;;341156;28;90897;-83
2023/01/23 00:07:14;;;;;;;;;;;1.40;99.90;2.10;100436.00;;;;341924;28;82542;-83
2023/01/23 00:07:25;;;;;;;;;;;1.40;99.90;2.10;100439.00;;;;342716;28;91180;-83
2023/01/23 00:07:37;;;;;;;;;;;1.40;99.90;2.10;100448.00;;;;343339;28;83394;-83
2023/01/23 00:07:49;;;;;;;;;;;1.40;99.90;2.10;100447.00;;;;340236;28;89156;-84
2023/01/23 00:08:01;;;;;;;;;;;1.40;99.90;2.10;100438.00;;;;340432;28;83543;-83
2023/01/23 00:08:13;;;;;;;;;;;1.40;99.90;2.10;100438.00;;;;338711;28;90840;-83
2023/01/23 00:08:25;;;;;;;;;;;1.40;99.90;2.10;100439.00;;;;339128;28;83513;-83
2023/01/23 00:08:37;;;;;;;;;;;1.40;99.90;2.10;100443.00;;;;341491;28;92231;-83
2023/01/23 00:08:48;;;;;;;;;;;1.40;99.90;2.00;100445.00;;;;343334;28;83264;-83
2023/01/23 00:09:00;;;;;;;;;;;1.40;99.90;2.00;100433.00;;;;341446;28;91096;-83
2023/01/23 00:09:12;;;;;;;;;;;1.40;99.90;2.00;100440.00;;;;341975;28;83315;-83
2023/01/23 00:09:24;;;;;;;;;;;1.40;99.90;2.00;100441.00;;;;340108;28;91345;-83
2023/01/23 00:09:35;;;;;;;;;;;1.40;99.90;2.00;100444.00;;;;341882;28;83506;-83
2023/01/23 00:09:47;;;;;;;;;;;1.40;99.90;2.00;100426.00;;;;341442;28;90584;-83
2023/01/23 00:09:59;;;;;;;;;;;1.40;99.90;2.00;100449.00;;;;341852;28;83426;-83
2023/01/23 00:10:11;;;;;;;;;;;1.40;99.90;2.10;100431.00;;;;342483;28;91113;-83
2023/01/23 00:10:22;;;;;;;;;;;1.40;99.90;2.10;100441.00;;;;341796;28;83490;-83
2023/01/23 00:10:34;;;;;;;;;;;1.40;99.90;2.10;100444.00;;;;342711;28;92235;-83
2023/01/23 00:10:46;;;;;;;;;;;1.40;99.90;2.10;100439.00;;;;341964;28;83350;-84
2023/01/23 00:10:57;;;;;;;;;;;1.40;99.90;2.10;100446.00;;;;340015;28;91477;-83
2023/01/23 00:11:12;;;;;;;;;;;1.40;99.90;2.00;100441.00;;;;340731;28;83201;-83
2023/01/23 00:11:25;;;;;;;;;;;1.40;99.90;2.10;100448.00;;;;344153;28;90629;-83
2023/01/23 00:11:37;;;;;;;;;;;1.40;99.90;2.10;100443.00;;;;341900;28;83385;-83
2023/01/23 00:11:48;;;;;;;;;;;1.40;99.90;2.00;100440.00;;;;342813;28;91164;-84
2023/01/23 00:12:00;;;;;;;;;;;1.40;99.90;2.10;100435.00;;;;343247;28;83528;-83
2023/01/23 00:12:12;;;;;;;;;;;1.50;99.90;2.10;100440.00;;;;341411;28;88818;-83
2023/01/23 00:12:24;;;;;;;;;;;1.40;99.90;2.10;100433.00;;;;343389;28;82408;-83
2023/01/23 00:12:36;;;;;;;;;;;1.40;99.90;2.10;100437.00;;;;342463;28;88843;-84
2023/01/23 00:12:48;;;;;;;;;;;1.40;99.90;2.10;100436.00;;;;344684;28;83077;-83
2023/01/23 00:12:59;;;;;;;;;;;1.40;99.90;2.10;100431.00;;;;344106;28;92120;-83
2023/01/23 00:13:11;;;;;;;;;;;1.40;99.90;2.10;100438.00;;;;344674;28;83344;-83
2023/01/23 00:13:23;;;;;;;;;;;1.40;99.90;2.10;100441.00;;;;342836;28;91646;-83
2023/01/23 00:13:35;;;;;;;;;;;1.40;99.90;2.10;100444.00;;;;341754;28;83518;-83
2023/01/23 00:13:46;;;;;;;;;;;1.50;99.90;2.10;100445.00;;;;338941;28;88981;-83
2023/01/23 00:13:59;;;;;;;;;;;1.50;99.90;2.10;100442.00;;;;340510;28;83411;-83
2023/01/23 00:14:10;;;;;;;;;;;1.40;99.90;2.10;100433.00;;;;341419;28;92233;-83
2023/01/23 00:14:22;;;;;;;;;;;1.50;99.90;2.10;100434.00;;;;339237;28;82537;-83
2023/01/23 00:14:34;;;;;;;;;;;1.50;99.90;2.10;100438.00;;;;340078;28;92139;-83
2023/01/23 00:14:46;;;;;;;;;;;1.50;99.90;2.10;100445.00;;;;341801;28;83457;-83
2023/01/23 00:14:57;;;;;;;;;;;1.50;99.90;2.00;100442.00;;;;339897;28;90742;-84
2023/01/23 00:15:10;;;;;;;;;;;1.40;99.90;2.00;100441.00;;;;341803;28;83451;-84
2023/01/23 00:15:22;;;;;;;;;;;1.40;99.90;1.90;100429.00;;;;340293;28;88725;-83
2023/01/23 00:15:34;;;;;;;;;;;1.40;99.90;2.00;100442.00;;;;340476;28;82536;-83
2023/01/23 00:15:46;;;;;;;;;;;1.40;99.90;2.00;100444.00;;;;342272;28;90524;-83
2023/01/23 00:15:58;;;;;;;;;;;1.40;99.90;2.00;100440.00;;;;340468;28;83533;-83
2023/01/23 00:16:12;;;;;;;;;;;1.40;99.90;2.00;100442.00;;;;341406;28;92373;-83
2023/01/23 00:16:25;;;;;;;;;;;1.40;99.90;2.00;100441.00;;;;342005;28;83314;-83
2023/01/23 00:16:37;;;;;;;;;;;1.40;99.90;1.90;100442.00;;;;340011;28;91561;-84
2023/01/23 00:16:48;;;;;;;;;;;1.40;99.90;2.00;100440.00;;;;341955;28;82261;-83
2023/01/23 00:17:00;;;;;;;;;;;1.40;99.90;2.00;100437.00;;;;341476;28;91109;-83
2023/01/23 00:17:12;;;;;;;;;;;1.40;99.90;2.00;100436.00;;;;340403;28;83345;-83
2023/01/23 00:17:26;;;;;;;;;;;1.40;99.90;2.10;100433.00;;;;340187;28;91366;-83
2023/01/23 00:17:40;;;;;;;;;;;1.40;99.90;2.10;100440.00;;;;341895;28;83366;-83
2023/01/23 00:17:52;;;;;;;;;;;1.40;99.90;2.00;100435.00;;;;340193;28;88622;-83
2023/01/23 00:18:04;;;;;;;;;;;1.40;99.90;2.00;100439.00;;;;339158;28;83379;-83
2023/01/23 00:18:16;;;;;;;;;;;1.40;99.90;2.00;100437.00;;;;340199;28;88031;-83
2023/01/23 00:18:27;;;;;;;;;;;1.40;99.90;2.00;100427.00;;;;344590;28;83455;-83
2023/01/23 00:18:39;;;;;;;;;;;1.40;99.90;2.00;100435.00;;;;339774;28;92138;-84
2023/01/23 00:18:51;;;;;;;;;;;1.40;99.90;2.10;100438.00;;;;341783;28;83293;-83
2023/01/23 00:19:03;;;;;;;;;;;1.40;99.90;2.10;100439.00;;;;341444;28;90874;-83
2023/01/23 00:19:14;;;;;;;;;;;1.40;99.90;2.10;100439.00;;;;340663;28;82395;-83
2023/01/23 00:19:26;;;;;;;;;;;1.40;99.90;2.00;100440.00;;;;341532;28;89432;-83
2023/01/23 00:19:38;;;;;;;;;;;1.40;99.90;2.00;100436.00;;;;341818;28;83334;-83
2023/01/23 00:19:54;;;;;;;;;;;1.40;99.90;2.00;100437.00;;;;340141;28;91788;-83
2023/01/23 00:20:09;;;;;;;;;;;1.40;99.90;2.10;100446.00;;;;341880;28;82576;-83
2023/01/23 00:20:21;;;;;;;;;;;1.40;99.90;2.00;100423.00;;;;341389;28;92181;-83
2023/01/23 00:20:33;;;;;;;;;;;1.40;99.90;2.00;100431.00;;;;343192;28;83448;-83
2023/01/23 00:20:44;;;;;;;;;;;1.40;99.90;2.00;100448.00;;;;340076;28;93357;-84
2023/01/23 00:20:57;;;;;;;;;;;1.40;99.90;2.10;100446.00;;;;341857;28;83467;-83
2023/01/23 00:21:12;;;;;;;;;;;1.40;99.90;2.10;100446.00;;;;338829;28;89564;-83
2023/01/23 00:21:26;;;;;;;;;;;1.40;99.90;2.10;100441.00;;;;341869;28;83302;-83
2023/01/23 00:21:38;;;;;;;;;;;1.40;99.90;2.10;100445.00;;;;342932;28;88721;-83
2023/01/23 00:21:50;;;;;;;;;;;1.40;99.90;2.10;100441.00;;;;343273;28;82442;-84
2023/01/23 00:22:01;;;;;;;;;;;1.40;99.90;2.10;100439.00;;;;342908;28;88610;-83
2023/01/23 00:22:14;;;;;;;;;;;1.40;99.90;2.00;100440.00;;;;343214;28;83639;-83
2023/01/23 00:22:26;;;;;;;;;;;1.40;99.90;2.00;100448.00;;;;342864;28;91143;-83
2023/01/23 00:22:38;;;;;;;;;;;1.40;99.90;2.10;100428.00;;;;341628;28;82535;-83
2023/01/23 00:22:49;;;;;;;;;;;1.40;99.90;2.10;100438.00;;;;341315;28;89882;-83
2023/01/23 00:23:01;;;;;;;;;;;1.40;99.90;2.10;100442.00;;;;340519;28;82643;-83
2023/01/23 00:23:13;;;;;;;;;;;1.40;99.90;2.10;100438.00;;;;338832;28;89173;-83
2023/01/23 00:23:25;;;;;;;;;;;1.40;99.90;2.10;100444.00;;;;342030;28;83302;-83
2023/01/23 00:23:37;;;;;;;;;;;1.40;99.90;2.10;100437.00;;;;340065;28;92000;-83
2023/01/23 00:23:50;;;;;;;;;;;1.40;99.90;2.10;100436.00;;;;341944;28;83411;-84
2023/01/23 00:24:02;;;;;;;;;;;1.50;99.90;2.10;100438.00;;;;340214;28;88635;-83
2023/01/23 00:24:14;;;;;;;;;;;1.40;99.90;2.10;100449.00;;;;341774;28;83533;-83
2023/01/23 00:24:26;;;;;;;;;;;1.40;99.90;2.10;100436.00;;;;337529;28;92390;-83
2023/01/23 00:24:37;;;;;;;;;;;1.40;99.90;2.10;100438.00;;;;339347;28;82295;-83
2023/01/23 00:24:49;;;;;;;;;;;1.40;99.90;2.10;100444.00;;;;342557;28;92705;-83
2023/01/23 00:25:01;;;;;;;;;;;1.40;99.90;2.10;100437.00;;;;341995;28;82439;-83
2023/01/23 00:25:13;;;;;;;;;;;1.50;99.90;2.10;100438.00;;;;342750;28;91785;-84
2023/01/23 00:25:25;;;;;;;;;;;1.50;99.90;2.10;100448.00;;;;342005;28;83494;-83
2023/01/23 00:25:37;;;;;;;;;;;1.50;99.90;2.10;100448.00;;;;345545;28;90662;-83
2023/01/23 00:25:48;;;;;;;;;;;1.50;99.90;2.10;100443.00;;;;344544;28;83457;-83
2023/01/23 00:26:04;;;;;;;;;;;1.50;99.90;2.10;100430.00;;;;341415;28;91368;-83
2023/01/23 00:26:19;;;;;;;;;;;1.50;99.90;2.10;100451.00;;;;340463;28;83534;-83
2023/01/23 00:26:34;;;;;;;;;;;1.40;99.90;2.00;100436.00;;;;338544;28;91334;-83
2023/01/23 00:26:46;;;;;;;;;;;1.40;99.90;2.00;100434.00;;;;339229;28;83352;-83
2023/01/23 00:26:57;;;;;;;;;;;1.40;99.90;2.00;100438.00;;;;341369;28;91823;-83
2023/01/23 00:27:09;;;;;;;;;;;1.40;99.90;2.00;100431.00;;;;341885;28;83389;-83
2023/01/23 00:27:21;;;;;;;;;;;1.40;99.90;2.00;100434.00;;;;340135;28;90907;-83
2023/01/23 00:27:33;;;;;;;;;;;1.40;99.90;2.10;100424.00;;;;337814;28;83510;-83
2023/01/23 00:27:44;;;;;;;;;;;1.40;99.90;2.10;100423.00;;;;340094;28;92561;-83
2023/01/23 00:27:56;;;;;;;;;;;1.40;99.90;2.00;100441.00;;;;337945;28;83935;-84
2023/01/23 00:28:08;;;;;;;;;;;1.40;99.90;1.90;100429.00;;;;337466;28;88921;-83
2023/01/23 00:28:20;;;;;;;;;;;1.40;99.90;2.00;100433.00;;;;339258;28;83381;-83
2023/01/23 00:28:31;;;;;;;;;;;1.40;99.90;2.10;100444.00;;;;341511;28;89786;-83
2023/01/23 00:28:43;;;;;;;;;;;1.40;99.90;2.10;100430.00;;;;343315;28;82559;-83
2023/01/23 00:28:55;;;;;;;;;;;1.40;99.90;2.10;100440.00;;;;342684;28;92157;-83
2023/01/23 00:29:07;;;;;;;;;;;1.40;99.90;2.00;100430.00;;;;341937;28;82545;-83
2023/01/23 00:29:19;;;;;;;;;;;1.40;99.90;2.10;100431.00;;;;341378;28;92384;-83
2023/01/23 00:29:30;;;;;;;;;;;1.40;99.90;2.00;100434.00;;;;343331;28;82650;-82
2023/01/23 00:29:42;;;;;;;;;;;1.40;99.90;2.00;100430.00;;;;340096;28;92335;-83
2023/01/23 00:29:54;;;;;;;;;;;1.40;99.90;2.00;100426.00;;;;340503;28;83396;-83
2023/01/23 00:30:06;;;;;;;;;;;1.40;99.90;2.00;100423.00;;;;340157;28;92145;-83
2023/01/23 00:30:18;;;;;;;;;;;1.40;99.90;2.00;100435.00;;;;343247;28;82612;-83
2023/01/23 00:30:30;;;;;;;;;;;1.40;99.90;2.00;100430.00;;;;341131;28;92286;-84
2023/01/23 00:30:42;;;;;;;;;;;1.40;99.90;2.00;100439.00;;;;340610;28;82450;-83
2023/01/23 00:31:04;;;;;;;;;;;1.40;99.90;2.00;100432.00;;;;339812;28;93150;-83
2023/01/23 00:31:20;;;;;;;;;;;1.40;99.90;2.00;100423.00;;;;340597;28;83320;-84
2023/01/23 00:31:34;;;;;;;;;;;1.40;99.90;2.00;100424.00;;;;338834;28;88540;-83
2023/01/23 00:31:46;;;;;;;;;;;1.40;99.90;2.00;100428.00;;;;337857;28;83340;-83
2023/01/23 00:31:58;;;;;;;;;;;1.40;99.90;2.00;100422.00;;;;341462;28;91732;-83
2023/01/23 00:32:10;;;;;;;;;;;1.40;99.90;2.00;100425.00;;;;341936;28;82569;-83
2023/01/23 00:32:22;;;;;;;;;;;1.40;99.90;2.00;100429.00;;;;340071;28;92638;-83
2023/01/23 00:32:33;;;;;;;;;;;1.40;99.90;2.00;100428.00;;;;341917;28;82502;-83
2023/01/23 00:32:45;;;;;;;;;;;1.40;99.90;2.00;100426.00;;;;341473;28;92166;-83
2023/01/23 00:32:57;;;;;;;;;;;1.40;99.90;2.10;100434.00;;;;339121;28;83573;-83
2023/01/23 00:33:09;;;;;;;;;;;1.40;99.90;2.00;100422.00;;;;337443;28;90195;-83
2023/01/23 00:33:21;;;;;;;;;;;1.40;99.90;2.00;100409.00;;;;343236;28;83495;-83
2023/01/23 00:33:32;;;;;;;;;;;1.40;99.90;2.00;100433.00;;;;340080;28;90273;-83
2023/01/23 00:33:44;;;;;;;;;;;1.40;99.90;2.00;100419.00;;;;340339;28;83495;-83
2023/01/23 00:33:58;;;;;;;;;;;1.40;99.90;2.00;100423.00;;;;341492;28;87932;-83
2023/01/23 00:34:13;;;;;;;;;;;1.40;99.90;1.90;100422.00;;;;341854;28;83479;-83
2023/01/23 00:34:25;;;;;;;;;;;1.30;99.90;1.90;100417.00;;;;341577;28;90231;-83
2023/01/23 00:34:37;;;;;;;;;;;1.30;99.90;1.90;100432.00;;;;340567;28;83470;-83
2023/01/23 00:34:48;;;;;;;;;;;1.30;99.90;2.00;100428.00;;;;340008;28;92565;-83
2023/01/23 00:35:01;;;;;;;;;;;1.30;99.90;2.00;100419.00;;;;339273;28;83502;-83
2023/01/23 00:35:13;;;;;;;;;;;1.30;99.90;1.90;100422.00;;;;340007;28;91567;-83
2023/01/23 00:35:25;;;;;;;;;;;1.30;99.90;2.00;100431.00;;;;339279;28;83296;-83
2023/01/23 00:35:36;;;;;;;;;;;1.30;99.90;2.00;100426.00;;;;338733;28;91971;-83
2023/01/23 00:35:48;;;;;;;;;;;1.30;99.90;2.00;100428.00;;;;340442;28;83488;-83
2023/01/23 00:36:00;;;;;;;;;;;1.30;99.90;2.00;100421.00;;;;340091;28;89250;-83
2023/01/23 00:36:13;;;;;;;;;;;1.30;99.90;2.00;100429.00;;;;340505;28;83491;-84
2023/01/23 00:36:27;;;;;;;;;;;1.30;99.90;2.00;100423.00;;;;342798;28;90382;-83
2023/01/23 00:36:41;;;;;;;;;;;1.30;99.90;2.00;100425.00;;;;340686;28;83204;-83
2023/01/23 00:36:52;;;;;;;;;;;1.30;99.90;2.00;100427.00;;;;339989;28;91800;-83
2023/01/23 00:37:04;;;;;;;;;;;1.30;99.90;1.90;100430.00;;;;341966;28;83398;-83
2023/01/23 00:37:16;;;;;;;;;;;1.30;99.90;1.90;100420.00;;;;342721;28;93268;-83
2023/01/23 00:37:28;;;;;;;;;;;1.30;99.90;2.00;100433.00;;;;343326;28;82415;-84
2023/01/23 00:37:39;;;;;;;;;;;1.30;99.90;2.00;100428.00;;;;342497;28;90617;-83
2023/01/23 00:37:51;;;;;;;;;;;1.30;99.90;2.00;100421.00;;;;344695;28;82467;-83
2023/01/23 00:38:03;;;;;;;;;;;1.40;99.90;2.00;100425.00;;;;340272;28;86924;-83
2023/01/23 00:38:15;;;;;;;;;;;1.30;99.90;2.00;100427.00;;;;344490;28;83512;-83
2023/01/23 00:38:27;;;;;;;;;;;1.30;99.90;2.00;100427.00;;;;342734;28;90696;-84
2023/01/23 00:38:39;;;;;;;;;;;1.30;99.90;2.00;100429.00;;;;340602;28;83428;-83
2023/01/23 00:38:51;;;;;;;;;;;1.30;99.90;2.00;100427.00;;;;340039;28;91512;-83
2023/01/23 00:39:05;;;;;;;;;;;1.30;99.90;2.00;100419.00;;;;343267;28;83332;-83
2023/01/23 00:39:18;;;;;;;;;;;1.30;99.90;2.00;100419.00;;;;342685;28;93428;-83
2023/01/23 00:39:30;;;;;;;;;;;1.30;99.90;1.90;100427.00;;;;343383;28;82401;-83
2023/01/23 00:39:42;;;;;;;;;;;1.30;99.90;2.00;100424.00;;;;344213;28;91812;-83
2023/01/23 00:39:54;;;;;;;;;;;1.40;99.90;2.00;100423.00;;;;343258;28;83254;-84
2023/01/23 00:40:06;;;;;;;;;;;1.30;99.90;2.00;100427.00;;;;338808;28;91985;-83
2023/01/23 00:40:18;;;;;;;;;;;1.30;99.90;2.00;100431.00;;;;340557;28;83507;-83
2023/01/23 00:40:30;;;;;;;;;;;1.30;99.90;2.00;100426.00;;;;342582;28;92633;-84
2023/01/23 00:40:42;;;;;;;;;;;1.30;99.90;1.90;100428.00;;;;341988;28;83175;-84
2023/01/23 00:40:55;;;;;;;;;;;1.30;99.90;1.90;100434.00;;;;341317;28;91723;-83
2023/01/23 00:41:06;;;;;;;;;;;1.30;99.90;1.90;100427.00;;;;343257;28;83466;-83
2023/01/23 00:41:18;;;;;;;;;;;1.30;99.90;1.90;100423.00;;;;340117;28;91539;-83
2023/01/23 00:41:30;;;;;;;;;;;1.30;99.90;1.90;100437.00;;;;341839;28;83488;-83
2023/01/23 00:41:42;;;;;;;;;;;1.30;99.90;1.90;100430.00;;;;342820;28;91654;-83
2023/01/23 00:41:54;;;;;;;;;;;1.30;99.90;1.90;100422.00;;;;340544;28;83394;-83
2023/01/23 00:42:06;;;;;;;;;;;1.30;99.90;1.90;100418.00;;;;340166;28;89089;-83
2023/01/23 00:42:18;;;;;;;;;;;1.30;99.90;1.90;100422.00;;;;343208;28;83268;-84
2023/01/23 00:42:29;;;;;;;;;;;1.30;99.90;1.90;100421.00;;;;338857;28;89767;-83
2023/01/23 00:42:41;;;;;;;;;;;1.30;99.90;2.00;100426.00;;;;341897;28;83513;-83
2023/01/23 00:42:53;;;;;;;;;;;1.30;99.90;2.00;100431.00;;;;345448;28;92345;-83
2023/01/23 00:43:05;;;;;;;;;;;1.30;99.90;1.90;100429.00;;;;341681;28;82503;-83
2023/01/23 00:43:16;;;;;;;;;;;1.30;99.90;1.90;100431.00;;;;340019;28;93104;-84
2023/01/23 00:43:29;;;;;;;;;;;1.30;99.90;2.00;100425.00;;;;341931;28;82494;-83
2023/01/23 00:43:41;;;;;;;;;;;1.30;99.90;2.00;100423.00;;;;341449;28;90309;-84
2023/01/23 00:43:52;;;;;;;;;;;1.30;99.90;2.00;100422.00;;;;341810;28;83625;-84
2023/01/23 00:44:04;;;;;;;;;;;1.30;99.90;2.00;100422.00;;;;340037;28;91999;-83
2023/01/23 00:44:16;;;;;;;;;;;1.30;99.90;2.00;100420.00;;;;340457;28;83353;-84
2023/01/23 00:44:29;;;;;;;;;;;1.30;99.90;1.90;100423.00;;;;338819;28;91127;-83
2023/01/23 00:44:41;;;;;;;;;;;1.30;99.90;1.90;100434.00;;;;341891;28;82560;-83
2023/01/23 00:44:53;;;;;;;;;;;1.30;99.90;1.90;100427.00;;;;344096;28;90769;-83
2023/01/23 00:45:05;;;;;;;;;;;1.30;99.90;2.00;100428.00;;;;342954;28;82670;-83
2023/01/23 00:45:17;;;;;;;;;;;1.30;99.90;2.00;100426.00;;;;342699;28;88677;-83
2023/01/23 00:45:29;;;;;;;;;;;1.30;99.90;2.00;100419.00;;;;343195;28;83456;-83
2023/01/23 00:45:41;;;;;;;;;;;1.30;99.90;2.00;100416.00;;;;341350;28;90432;-83
2023/01/23 00:45:52;;;;;;;;;;;1.30;99.90;2.00;100419.00;;;;340631;28;82593;-83
2023/01/23 00:46:04;;;;;;;;;;;1.30;99.90;2.00;100421.00;;;;340150;28;89304;-84
2023/01/23 00:46:17;;;;;;;;;;;1.30;99.90;2.00;100423.00;;;;339157;28;83460;-84
2023/01/23 00:46:29;;;;;;;;;;;1.30;99.90;2.00;100431.00;;;;341338;28;91527;-83
2023/01/23 00:46:41;;;;;;;;;;;1.30;99.90;1.90;100429.00;;;;341989;28;83362;-83
2023/01/23 00:46:53;;;;;;;;;;;1.30;99.90;2.00;100428.00;;;;341349;28;91636;-84
2023/01/23 00:47:05;;;;;;;;;;;1.30;99.90;2.00;100417.00;;;;341863;28;83257;-83
2023/01/23 00:47:16;;;;;;;;;;;1.30;99.90;1.90;100422.00;;;;340027;28;91144;-83
2023/01/23 00:47:29;;;;;;;;;;;1.30;99.90;1.90;100420.00;;;;340539;28;83427;-83
2023/01/23 00:47:40;;;;;;;;;;;1.30;99.90;2.00;100424.00;;;;337452;28;89706;-83
2023/01/23 00:47:52;;;;;;;;;;;1.30;99.90;2.00;100429.00;;;;341864;28;82242;-83
2023/01/23 00:48:04;;;;;;;;;;;1.30;99.90;2.00;100427.00;;;;342721;28;91598;-83
2023/01/23 00:48:16;;;;;;;;;;;1.30;99.90;2.00;100438.00;;;;340563;28;83346;-83
2023/01/23 00:48:28;;;;;;;;;;;1.30;99.90;2.00;100423.00;;;;339733;28;92104;-83
2023/01/23 00:48:39;;;;;;;;;;;1.30;99.90;2.00;100420.00;;;;339303;28;82591;-83
2023/01/23 00:48:51;;;;;;;;;;;1.30;99.90;2.00;100416.00;;;;340039;28;91459;-83
2023/01/23 00:49:03;;;;;;;;;;;1.30;99.90;1.90;100421.00;;;;339193;28;83337;-83
2023/01/23 00:49:16;;;;;;;;;;;1.30;99.90;1.90;100428.00;;;;338758;28;89573;-83
2023/01/23 00:49:29;;;;;;;;;;;1.30;99.90;2.00;100419.00;;;;339091;28;82547;-83
2023/01/23 00:49:41;;;;;;;;;;;1.30;99.90;2.00;100416.00;;;;341503;28;91061;-84
2023/01/23 00:49:54;;;;;;;;;;;1.30;99.90;2.00;100406.00;;;;341958;28;83385;-83
2023/01/23 00:50:06;;;;;;;;;;;1.30;99.90;2.00;100423.00;;;;339971;28;89579;-83
2023/01/23 00:50:17;;;;;;;;;;;1.30;99.90;2.00;100423.00;;;;341941;28;83991;-83
2023/01/23 00:50:29;;;;;;;;;;;1.30;99.90;2.00;100415.00;;;;344112;28;91431;-84
2023/01/23 00:50:41;;;;;;;;;;;1.30;99.90;2.00;100422.00;;;;343269;28;83397;-83
2023/01/23 00:50:53;;;;;;;;;;;1.30;99.90;2.00;100421.00;;;;341380;28;92394;-83
2023/01/23 00:51:05;;;;;;;;;;;1.30;99.90;2.00;100419.00;;;;343228;28;83415;-84
2023/01/23 00:51:17;;;;;;;;;;;1.30;99.90;2.00;100429.00;;;;342737;28;93054;-83
2023/01/23 00:51:29;;;;;;;;;;;1.30;99.90;2.00;100430.00;;;;340474;28;83470;-83
2023/01/23 00:51:40;;;;;;;;;;;1.30;99.90;2.00;100428.00;;;;341570;28;89496;-84
2023/01/23 00:51:55;;;;;;;;;;;1.30;99.90;2.00;100420.00;;;;341889;28;83407;-83
2023/01/23 00:52:06;;;;;;;;;;;1.30;99.90;2.00;100418.00;;;;340037;28;92491;-83
2023/01/23 00:52:19;;;;;;;;;;;1.30;99.90;2.00;100419.00;;;;341556;28;82567;-83
2023/01/23 00:52:30;;;;;;;;;;;1.30;99.90;1.90;100413.00;;;;341489;28;90686;-83
2023/01/23 00:52:42;;;;;;;;;;;1.30;99.90;2.00;100417.00;;;;341953;28;83424;-83
2023/01/23 00:52:54;;;;;;;;;;;1.40;99.90;2.00;100414.00;;;;340107;28;88581;-83
2023/01/23 00:53:06;;;;;;;;;;;1.40;99.90;2.00;100413.00;;;;341850;28;83397;-83
2023/01/23 00:53:17;;;;;;;;;;;1.30;99.90;2.00;100421.00;;;;342743;28;93333;-83
2023/01/23 00:53:29;;;;;;;;;;;1.30;99.90;2.00;100425.00;;;;344401;28;83418;-83
2023/01/23 00:53:41;;;;;;;;;;;1.30;99.90;2.00;100414.00;;;;341559;28;89031;-83
2023/01/23 00:53:53;;;;;;;;;;;1.30;99.90;2.00;100417.00;;;;340537;28;83145;-83
2023/01/23 00:54:04;;;;;;;;;;;1.40;99.90;2.00;100422.00;;;;341637;28;89278;-83
2023/01/23 00:54:18;;;;;;;;;;;1.40;99.90;2.00;100415.00;;;;343041;28;82632;-83
2023/01/23 00:54:30;;;;;;;;;;;1.40;99.90;2.00;100415.00;;;;344117;28;92296;-83
2023/01/23 00:54:42;;;;;;;;;;;1.40;99.90;2.00;100432.00;;;;344645;28;83231;-83
2023/01/23 00:54:54;;;;;;;;;;;1.30;99.90;2.00;100414.00;;;;341379;28;89089;-83
2023/01/23 00:55:06;;;;;;;;;;;1.40;99.90;2.00;100422.00;;;;341909;28;83371;-83
2023/01/23 00:55:18;;;;;;;;;;;1.30;99.90;2.00;100416.00;;;;339787;28;92504;-83
2023/01/23 00:55:30;;;;;;;;;;;1.40;99.90;2.00;100417.00;;;;340432;28;83463;-83
2023/01/23 00:55:42;;;;;;;;;;;1.30;99.90;2.00;100426.00;;;;340166;28;89534;-83
2023/01/23 00:55:54;;;;;;;;;;;1.30;99.90;2.00;100418.00;;;;343298;28;83393;-82
2023/01/23 00:56:06;;;;;;;;;;;1.30;99.90;2.00;100415.00;;;;340071;28;91626;-83
2023/01/23 00:56:18;;;;;;;;;;;1.30;99.90;2.00;100413.00;;;;339212;28;83467;-83
2023/01/23 00:56:29;;;;;;;;;;;1.40;99.90;2.00;100418.00;;;;340068;28;91398;-83
2023/01/23 00:56:42;;;;;;;;;;;1.40;99.90;2.00;100417.00;;;;341927;28;83330;-84
2023/01/23 00:56:53;;;;;;;;;;;1.30;99.90;2.00;100414.00;;;;341287;28;90915;-82
2023/01/23 00:57:05;;;;;;;;;;;1.40;99.90;2.00;100400.00;;;;340586;28;83449;-84
2023/01/23 00:57:17;;;;;;;;;;;1.30;99.90;2.00;100417.00;;;;339979;28;92385;-83
2023/01/23 00:57:29;;;;;;;;;;;1.40;99.90;1.90;100417.00;;;;340591;28;83281;-83
2023/01/23 00:57:41;;;;;;;;;;;1.30;99.90;2.00;100416.00;;;;339961;28;89874;-83
2023/01/23 00:57:52;;;;;;;;;;;1.30;99.90;2.00;100406.00;;;;341767;28;83628;-83
2023/01/23 00:58:04;;;;;;;;;;;1.30;99.90;2.00;100405.00;;;;340042;28;90333;-83
2023/01/23 00:58:17;;;;;;;;;;;1.30;99.90;2.00;100412.00;;;;340522;28;82568;-83
2023/01/23 00:58:29;;;;;;;;;;;1.30;99.90;2.00;100405.00;;;;342787;28;90436;-83
2023/01/23 00:58:40;;;;;;;;;;;1.30;99.90;2.00;100411.00;;;;344658;28;83443;-84
2023/01/23 00:58:55;;;;;;;;;;;1.30;99.90;2.00;100415.00;;;;339996;28;91842;-83
2023/01/23 00:59:07;;;;;;;;;;;1.30;99.90;2.00;100412.00;;;;341981;28;83308;-83
2023/01/23 00:59:18;;;;;;;;;;;1.30;99.90;1.90;100414.00;;;;342651;28;93027;-83
2023/01/23 00:59:30;;;;;;;;;;;1.30;99.90;1.90;100414.00;;;;340516;28;83176;-83
2023/01/23 00:59:42;;;;;;;;;;;1.30;99.90;2.00;100404.00;;;;340194;28;88054;-84
2023/01/23 00:59:54;;;;;;;;;;;1.30;99.90;2.00;100404.00;;;;341941;28;82446;-83
2023/01/23 01:00:06;;;;;;;;;;;1.30;99.90;2.00;100412.00;;;;341418;28;92116;-83
2023/01/23 01:00:18;;;;;;;;;;;1.30;99.90;2.00;100417.00;;;;341822;28;83554;-83
2023/01/23 01:00:30;;;;;;;;;;;1.30;99.90;2.00;100412.00;;;;345614;28;88037;-83
2023/01/23 01:00:42;;;;;;;;;;;1.30;99.90;2.00;100411.00;;;;341915;28;82287;-83
2023/01/23 01:00:55;;;;;;;;;;;1.30;99.90;2.00;100414.00;;;;341069;28;91615;-83
2023/01/23 01:01:07;;;;;;;;;;;1.30;99.90;2.00;100415.00;;;;339188;28;83415;-83